| Date | Time | Temp. (oF) | Dew Point (oF) | Rel. Hum. (%) | Press. (in.) | Wind Dir. | Wind Speed (mph) | Hourly Rainfall (in.) |
|
|---|---|---|---|---|---|---|---|---|---|
| 1 | 05/03 | 00:00 | 58 | 54 | 88 | 29.81 | ESE | 3 | 0.00 |
| 2 | 05/02 | 23:00 | 58 | 54 | 88 | 29.84 | ENE | 0 | 0.36 |
| 3 | 05/02 | 22:00 | 59 | 55 | 87 | 29.80 | SE | 6 | 0.02 |
| 4 | 05/02 | 21:00 | 60 | 55 | 85 | 29.82 | ENE | 6 | 0.02 |
| 5 | 05/02 | 20:00 | 64 | 57 | 79 | 29.79 | ESE | 3 | 0.00 |
| 6 | 05/02 | 19:00 | 67 | 58 | 74 | 29.78 | E | 4 | 0.00 |
| 7 | 05/02 | 18:00 | 68 | 58 | 72 | 29.78 | SE | 6 | 0.00 |
| 8 | 05/02 | 17:00 | 69 | 58 | 69 | 29.78 | SSE | 0 | 0.00 |
| 9 | 05/02 | 16:00 | 68 | 58 | 72 | 29.78 | SSE | 3 | 0.00 |
| 10 | 05/02 | 15:00 | 66 | 59 | 79 | 29.80 | SE | 6 | 0.00 |
| 11 | 05/02 | 14:00 | 59 | 54 | 86 | 29.84 | SE | 0 | 0.00 |
| 12 | 05/02 | 13:00 | 56 | 52 | 88 | 29.85 | SSW | 0 | 0.00 |
| 13 | 05/02 | 12:00 | 54 | 50 | 89 | 29.87 | SSE | 4 | 0.00 |
| 14 | 05/02 | 11:00 | 53 | 49 | 89 | 29.88 | ESE | 4 | 0.00 |
| 15 | 05/02 | 10:00 | 51 | 48 | 90 | 29.88 | SSE | 6 | 0.00 |
| 16 | 05/02 | 09:00 | 50 | 46 | 89 | 29.88 | ESE | 0 | 0.00 |
| 17 | 05/02 | 08:00 | 49 | 45 | 89 | 29.93 | SSE | 0 | 0.00 |
| 18 | 05/02 | 07:00 | 49 | 46 | 90 | 29.89 | SSE | 2 | 0.00 |
| 19 | 05/02 | 06:00 | 49 | 46 | 90 | 29.89 | SE | 0 | 0.00 |
| 20 | 05/02 | 05:00 | 49 | 46 | 90 | 29.90 | ESE | 0 | 0.00 |
| 21 | 05/02 | 04:00 | 50 | 47 | 90 | 29.91 | ESE | 3 | 0.00 |
| 22 | 05/02 | 03:00 | 50 | 47 | 90 | 29.92 | SE | 3 | 0.00 |
| 23 | 05/02 | 02:00 | 50 | 47 | 90 | 29.92 | ENE | 4 | 0.00 |
| 24 | 05/02 | 01:00 | 51 | 48 | 90 | 29.96 | NE | 0 | 0.00 |